Van Lear, KY

3:51 AM EST on January 22, 2017 (GMT -0500)
Prestonsburg

Weather History for KK22 - November, 2012

Change the Weather History Date:

Thursday, November 1, 2012

  Actual Average (KJKL) Record (KJKL)
Temperature  
Mean Temperature 45 °F -  
Max Temperature 52 °F 60 °F 82 °F (2016)
Min Temperature 38 °F 43 °F 30 °F (1993)
Degree Days  
Heating Degree Days 20    
Moisture  
Dew Point 31 °F    
Average Humidity 65    
Maximum Humidity 97    
Minimum Humidity 35    
Precipitation  
Precipitation 0.00 in - - ()
Sea Level Pressure  
Sea Level Pressure 29.90 in    
Wind  
Wind Speed 6 mph ()    
Max Wind Speed 14 mph    
Max Gust Speed 22 mph    
Visibility 10.0 miles    
Events      
Averages and records for this station are not official NWS values.
T = Trace of Precipitation, MM = Missing Value Source: Averaged Metar Reports

Daily Weather History Graph

Daily Weather History Graph

Search for Another Location

Airport or City:

Trip Planner

Search our weather history database for the weather conditions in past years. The results will help you decide how hot, cold, wet, or windy it might be!

Date:

Astronomy

Nov. 01, 2012 Rise Set
Actual Time 7:56 AM EDT 6:31 PM EDT
Civil Twilight 7:29 AM EDT 6:58 PM EDT
Nautical Twilight 6:58 AM EDT 7:29 PM EDT
Astronomical Twilight 6:27 AM EDT 8:00 PM EDT
Moon 8:29 PM EDT (11/1) 10:25 AM EDT (11/1)
Length of Visible Light 11h 29m
Length of Day
10h 35m
Waning Gibbous, 93% of the Moon is Illuminated
Nov 1
Waning Gibbous
Nov 6
Last Quarter
Nov 13
New
Nov 20
First Quarter
Nov 28
Full

Hourly Weather History & Observations

Time (EDT) Temp. Windchill Dew Point Humidity Pressure Visibility Wind Dir Wind Speed Gust Speed Precip Events Conditions
12:15 AM 38.5 °F 36.1 °F 37.4 °F 96% 29.89 in 10.0 mi West 3.5 mph - N/A   Overcast
12:35 AM 38.5 °F 35.0 °F 37.8 °F 97% 29.89 in 10.0 mi WSW 4.6 mph - N/A   Overcast
1:15 AM 38.7 °F 35.2 °F 37.4 °F 95% 29.88 in 10.0 mi WSW 4.6 mph - N/A   Overcast
1:35 AM 38.7 °F 35.2 °F 37.4 °F 95% 29.88 in 10.0 mi WSW 4.6 mph - N/A   Overcast
1:55 AM 38.8 °F 34.6 °F 36.9 °F 93% 29.88 in 10.0 mi West 5.8 mph - N/A   Overcast
2:15 AM 38.7 °F 34.3 °F 36.5 °F 92% 29.88 in 10.0 mi West 5.8 mph - N/A   Overcast
2:35 AM 38.7 °F 33.6 °F 36.5 °F 92% 29.88 in 10.0 mi West 6.9 mph - N/A   Overcast
2:55 AM 38.7 °F 32.9 °F 36.5 °F 92% 29.88 in 10.0 mi West 8.1 mph - N/A   Overcast
3:15 AM 38.5 °F 34.1 °F 35.8 °F 90% 29.88 in 10.0 mi West 5.8 mph - N/A   Overcast
3:35 AM 38.5 °F 34.1 °F 35.6 °F 89% 29.88 in 10.0 mi West 5.8 mph - N/A   Overcast
3:55 AM 38.3 °F 34.8 °F 35.8 °F 91% 29.88 in 10.0 mi West 4.6 mph - N/A   Overcast
4:15 AM 38.3 °F 33.2 °F 36.0 °F 91% 29.88 in 10.0 mi West 6.9 mph - N/A   Overcast
4:35 AM 38.3 °F 33.9 °F 36.0 °F 91% 29.88 in 10.0 mi West 5.8 mph - N/A   Overcast
4:55 AM 38.3 °F 34.8 °F 36.5 °F 93% 29.88 in 10.0 mi West 4.6 mph - N/A   Overcast
5:15 AM 38.3 °F 33.9 °F 36.5 °F 93% 29.88 in 10.0 mi WSW 5.8 mph - N/A   Overcast
5:35 AM 38.5 °F 35.0 °F 36.5 °F 93% 29.88 in 10.0 mi WSW 4.6 mph - N/A   Overcast
5:55 AM 38.7 °F 36.3 °F 36.5 °F 92% 29.88 in 10.0 mi WSW 3.5 mph - N/A   Overcast
6:15 AM 38.8 °F 36.5 °F 36.5 °F 91% 29.88 in 10.0 mi WSW 3.5 mph - N/A   Overcast
6:35 AM 38.7 °F 34.3 °F 36.5 °F 92% 29.88 in 10.0 mi SW 5.8 mph - N/A   Overcast
6:55 AM 39.0 °F 34.8 °F 36.3 °F 90% 29.88 in 10.0 mi WSW 5.8 mph - N/A   Overcast
7:15 AM 39.2 °F 35.9 °F 36.1 °F 89% 29.88 in 10.0 mi WSW 4.6 mph - N/A   Overcast
7:35 AM 39.2 °F 35.0 °F 36.5 °F 90% 29.90 in 10.0 mi West 5.8 mph - N/A   Overcast
7:55 AM 39.4 °F 36.1 °F 36.3 °F 89% 29.90 in 10.0 mi West 4.6 mph - N/A   Overcast
8:15 AM 39.7 °F 36.5 °F 36.1 °F 87% 29.91 in 10.0 mi West 4.6 mph - N/A   Overcast
8:35 AM 40.1 °F 34.7 °F 35.8 °F 85% 29.91 in 10.0 mi West 8.1 mph - N/A   Overcast
8:55 AM 40.3 °F 34.9 °F 35.8 °F 84% 29.92 in 10.0 mi West 8.1 mph - N/A   Overcast
9:15 AM 40.5 °F 35.8 °F 35.8 °F 83% 29.93 in 10.0 mi West 6.9 mph - N/A   Overcast
9:35 AM 41.0 °F 38.0 °F 35.8 °F 82% 29.93 in 10.0 mi West 4.6 mph - N/A   Overcast
9:55 AM 41.4 °F 38.4 °F 35.8 °F 81% 29.93 in 10.0 mi West 4.6 mph - N/A   Overcast
10:15 AM 41.9 °F 38.2 °F 35.8 °F 79% 29.93 in 10.0 mi West 5.8 mph - N/A   Overcast
10:35 AM 42.3 °F 39.4 °F 35.6 °F 77% 29.93 in 10.0 mi West 4.6 mph - N/A   Overcast
10:55 AM 43.0 °F 38.8 °F 36.0 °F 76% 29.93 in 10.0 mi West 6.9 mph - N/A   Overcast
11:15 AM 43.7 °F 39.1 °F 36.1 °F 75% 29.93 in 10.0 mi WSW 8.1 mph - N/A   Overcast
11:35 AM 45.5 °F 40.8 °F 36.3 °F 70% 29.93 in 10.0 mi WSW 9.2 mph - N/A   Mostly Cloudy
12:15 PM 47.3 °F - 34.7 °F 62% 29.93 in 10.0 mi WNW 8.1 mph 16.1 mph N/A   Overcast
12:35 PM 48.0 °F - 34.3 °F 59% 29.92 in 10.0 mi West 6.9 mph - N/A   Overcast
12:55 PM 46.9 °F - 32.7 °F 58% 29.91 in 10.0 mi West 8.1 mph - N/A   Mostly Cloudy
1:15 PM 48.4 °F - 32.9 °F 55% 29.90 in 10.0 mi WNW 10.4 mph 16.1 mph N/A   Overcast
1:35 PM 47.7 °F - 32.5 °F 56% 29.89 in 10.0 mi West 9.2 mph 17.3 mph N/A   Mostly Cloudy
1:55 PM 50.2 °F - 32.9 °F 52% 29.88 in 10.0 mi WSW 10.4 mph 18.4 mph N/A   Scattered Clouds
2:15 PM 50.4 °F - 32.0 °F 49% 29.88 in 10.0 mi West 9.2 mph 18.4 mph N/A   Scattered Clouds
2:35 PM 50.9 °F - 30.4 °F 45% 29.87 in 10.0 mi West 12.7 mph 18.4 mph N/A   Clear
2:55 PM 51.4 °F - 30.6 °F 45% 29.87 in 7.0 mi West 6.9 mph 18.4 mph N/A   Scattered Clouds
3:15 PM 51.4 °F - 28.8 °F 42% 29.87 in 10.0 mi West 10.4 mph 21.9 mph N/A   Scattered Clouds
3:35 PM 52.0 °F - 28.8 °F 41% 29.87 in 10.0 mi WNW 6.9 mph 18.4 mph N/A   Clear
3:55 PM 52.3 °F - 28.9 °F 41% 29.87 in 10.0 mi WSW 12.7 mph 20.7 mph N/A   Clear
4:15 PM 52.5 °F - 28.0 °F 39% 29.87 in 10.0 mi West 11.5 mph 16.1 mph N/A   Clear
4:35 PM 52.5 °F - 27.7 °F 38% 29.87 in 10.0 mi West 9.2 mph 18.4 mph N/A   Scattered Clouds
4:55 PM 50.9 °F - 24.6 °F 36% 29.88 in 10.0 mi West 10.4 mph 20.7 mph N/A   Clear
5:15 PM 50.2 °F - 24.6 °F 37% 29.88 in 10.0 mi West 5.8 mph 18.4 mph N/A   Scattered Clouds
5:35 PM 49.8 °F - 25.0 °F 38% 29.88 in 10.0 mi WNW 10.4 mph 17.3 mph N/A   Clear
5:55 PM 51.1 °F - 24.1 °F 35% 29.88 in 10.0 mi West 9.2 mph - N/A   Mostly Cloudy
6:15 PM 50.4 °F - 23.2 °F 35% 29.88 in 10.0 mi WNW 4.6 mph - N/A   Overcast
6:35 PM 49.3 °F - 24.6 °F 38% 29.89 in 10.0 mi West 13.8 mph 17.3 mph N/A   Overcast
6:55 PM 48.2 °F - 22.8 °F 37% 29.91 in 10.0 mi WNW 9.2 mph 20.7 mph N/A   Mostly Cloudy
7:15 PM 48.0 °F - 21.9 °F 36% 29.91 in 10.0 mi West 4.6 mph - N/A   Mostly Cloudy
7:55 PM 45.9 °F 43.6 °F 22.5 °F 40% 29.92 in 10.0 mi West 4.6 mph - N/A   Mostly Cloudy
8:15 PM 45.5 °F 43.2 °F 22.8 °F 41% 29.92 in 10.0 mi WSW 4.6 mph - N/A   Scattered Clouds
8:35 PM 45.3 °F 43.0 °F 22.8 °F 41% 29.93 in 10.0 mi West 4.6 mph - N/A   Mostly Cloudy
8:55 PM 45.5 °F 42.5 °F 22.8 °F 41% 29.93 in 10.0 mi West 5.8 mph - N/A   Overcast
9:15 PM 46.2 °F 43.3 °F 22.8 °F 40% 29.93 in 10.0 mi West 5.8 mph - N/A   Overcast
9:35 PM 46.2 °F 44.1 °F 23.2 °F 40% 29.93 in 10.0 mi West 4.6 mph - N/A   Overcast
9:55 PM 46.4 °F 44.3 °F 22.8 °F 39% 29.94 in 10.0 mi West 4.6 mph - N/A   Overcast
10:15 PM 46.4 °F 45.2 °F 23.2 °F 40% 29.94 in 10.0 mi West 3.5 mph - N/A   Overcast
10:35 PM 46.4 °F 45.2 °F 23.2 °F 40% 29.94 in 10.0 mi WSW 3.5 mph - N/A   Overcast
10:55 PM 46.6 °F - 22.8 °F 39% 29.94 in 10.0 mi WSW 5.8 mph - N/A   Overcast
11:15 PM 46.8 °F - 22.6 °F 39% 29.93 in 10.0 mi SW 5.8 mph - N/A   Overcast
11:35 PM 46.0 °F 43.9 °F 23.2 °F 41% 29.93 in 10.0 mi WSW 4.6 mph - N/A   Overcast
11:55 PM 46.4 °F 45.2 °F 22.8 °F 39% 29.93 in 10.0 mi SW 3.5 mph - N/A   Overcast